Portada
METAR-TAF:

METAR-TAF

Aeroports :

Dimapur, Índia

latitud: 25-53-02N, longitud: 093-46-16E, altitud: 148 m

Observació

L'informe es va fer fa 11 hores i 18 minuts, a les 07:00 UTC
Vent calma
Temperatura 28°C
Humitat 62%
Pressió 1012 hPa
Visibilitat: 5000 m
Núvols disperses a una alçada de 2000 ft
Núvols disperses a una alçada de 10000 ft
calitja

METAR: VEMR 160700Z 00000KT 5000 HZ SCT020 SCT100 28/20 Q1012

Hora: 23:48 (18:18 UTC)


TAF: manca

Observacions i pronòstics meteorològics de més de 4000 aeroports (METAR i TAF).

Les estacions disponibles són els punts grocs i vermells al mapa.

Posi el ratolí al punt desitjat per veure el nom de l'estació.

Feu clic per veure les observacions i els pronòstics meteorològics.

Per canviar el mapa: feu clic els botons verds amb una creu de color negre per apropar; al botó verd amb un guió per allunyar la imatge; o en les fletxes verdes per a mapes adjacents.


METAR-TAF: